Connexion S'enregistrer

Connexion à votre compte

Identifiant
Mot de passe
Maintenir la connexion active sur ce site

Créer un compte

Pour valider ce formulaire, vous devez remplir tous les champs.
Nom
Identifiant
Mot de passe
Répétez le mot de passe
Adresse e-mail
Répétez l'adresse e-mail

Nous contacter

 Téléphone : +33 (0)4 79 54 41 81

Coordonnées détaillées et accès : cliquez ici

 
LFLB °C
    Ferienhaus Ostsee
[source: ADDS]
METAR
LFLB 212100Z AUTO 36010KT CAVOK 24/14 Q1018 =
TAF
TAF LFLB 211100Z 2112/2212 36006KT 9999 FEW050 PROB40 TEMPO 2112/2117 FEW050TCU SCT060 PROB30 TEMPO 2112/2116 SHRA FEW050CB BKN060 BECMG 2200/2203 BKN030 BECMG 2206/2208 CAVOK BECMG 2208/2211 36015G25KT =
SR / SS: 03:47 / 19:29 UTC (Lever/Coucher du soleil le 2018-06-21)
JSN Boot template designed by JoomlaShine.com